createdAt,value
2023-05-05T00:01:14.551Z,12.11
2023-05-05T00:03:43.713Z,12.08
2023-05-05T00:06:15.174Z,11.95
2023-05-05T00:08:49.528Z,11.93
2023-05-05T00:11:20.115Z,11.86
2023-05-05T00:13:51.853Z,11.83
2023-05-05T00:16:20.688Z,11.91
2023-05-05T00:18:51.738Z,11.87
2023-05-05T00:21:21.913Z,11.80
2023-05-05T00:23:54.342Z,11.91
2023-05-05T00:26:23.031Z,11.84
2023-05-05T00:28:53.461Z,11.71
2023-05-05T00:31:25.426Z,11.69
2023-05-05T00:33:55.538Z,11.67
2023-05-05T00:36:25.861Z,11.57
2023-05-05T00:38:55.767Z,11.59
2023-05-05T00:41:24.401Z,11.57
2023-05-05T00:43:54.661Z,11.62
2023-05-05T00:46:25.811Z,11.67
2023-05-05T00:48:56.664Z,11.57
2023-05-05T00:51:26.754Z,11.50
2023-05-05T00:53:57.035Z,11.49
2023-05-05T00:56:27.499Z,11.39
2023-05-05T00:58:57.128Z,11.38
2023-05-05T01:01:25.332Z,11.33
2023-05-05T01:03:54.869Z,11.25
2023-05-05T01:06:34.692Z,11.21
2023-05-05T01:09:10.826Z,11.21
2023-05-05T01:11:43.407Z,11.11
2023-05-05T01:14:14.796Z,11.04
2023-05-05T01:16:50.268Z,10.85
2023-05-05T01:19:25.297Z,10.90
2023-05-05T01:22:01.081Z,10.75
2023-05-05T01:24:46.930Z,10.61
2023-05-05T01:27:30.055Z,10.52
2023-05-05T01:30:32.029Z,10.40
2023-05-05T01:33:04.746Z,10.40
2023-05-05T01:35:37.651Z,10.22
2023-05-05T01:38:09.476Z,10.09
2023-05-05T01:40:42.572Z,9.92
2023-05-05T01:43:14.617Z,9.84
2023-05-05T01:45:46.453Z,9.84
2023-05-05T01:48:18.986Z,9.81
2023-05-05T01:50:48.168Z,9.74
2023-05-05T01:53:20.072Z,9.65
2023-05-05T01:55:49.132Z,9.74
2023-05-05T01:58:18.599Z,9.68
2023-05-05T02:00:47.513Z,9.68
2023-05-05T02:03:19.067Z,9.58
2023-05-05T02:05:48.762Z,9.46
2023-05-05T02:08:19.554Z,9.27
2023-05-05T02:10:50.904Z,9.34
2023-05-05T02:13:22.051Z,9.23
2023-05-05T02:15:53.196Z,9.24
2023-05-05T02:18:27.202Z,9.23
2023-05-05T02:20:58.575Z,9.24
2023-05-05T02:23:28.618Z,9.15
2023-05-05T02:26:02.168Z,9.12
2023-05-05T02:28:35.387Z,9.03
2023-05-05T02:31:06.493Z,9.00
2023-05-05T02:33:39.201Z,8.98
2023-05-05T02:36:15.587Z,8.92
2023-05-05T02:38:51.133Z,9.00
2023-05-05T02:41:22.753Z,9.22
2023-05-05T02:43:52.675Z,8.96
2023-05-05T02:46:24.508Z,8.85
2023-05-05T02:48:55.182Z,8.82
2023-05-05T02:51:25.702Z,8.82
2023-05-05T02:53:54.122Z,8.75
2023-05-05T02:56:27.450Z,8.71
2023-05-05T02:58:58.675Z,8.79
2023-05-05T03:01:39.558Z,8.69
2023-05-05T03:04:15.860Z,8.61
2023-05-05T03:06:45.847Z,8.61
2023-05-05T03:09:18.656Z,8.55
2023-05-05T03:11:51.119Z,8.57
2023-05-05T03:14:22.502Z,8.61
2023-05-05T03:16:56.737Z,8.58
2023-05-05T03:19:28.878Z,8.47
2023-05-05T03:22:01.398Z,8.42
2023-05-05T03:24:31.407Z,8.41
2023-05-05T03:27:00.756Z,8.38
2023-05-05T03:29:32.705Z,8.38
2023-05-05T03:32:03.287Z,8.34
2023-05-05T03:34:36.058Z,8.36
2023-05-05T03:37:05.987Z,8.30
2023-05-05T03:39:34.173Z,8.26
2023-05-05T03:42:02.288Z,8.21
2023-05-05T03:44:33.158Z,8.27
2023-05-05T03:47:02.257Z,8.33
2023-05-05T03:49:30.550Z,8.27
2023-05-05T03:52:05.880Z,8.23
2023-05-05T03:54:34.795Z,8.23
2023-05-05T03:57:04.002Z,8.30
2023-05-05T03:59:32.389Z,8.37
2023-05-05T04:02:05.630Z,8.34
2023-05-05T04:04:41.128Z,8.33
2023-05-05T04:07:11.820Z,8.41
2023-05-05T04:09:44.415Z,8.44
2023-05-05T04:12:13.028Z,8.52
2023-05-05T04:14:41.475Z,8.55
2023-05-05T04:17:09.913Z,8.65
2023-05-05T04:19:38.263Z,8.76
2023-05-05T04:22:07.323Z,8.82
2023-05-05T04:24:37.341Z,8.93
2023-05-05T04:27:05.426Z,8.96
2023-05-05T04:29:36.527Z,9.05
2023-05-05T04:32:04.860Z,9.03
2023-05-05T04:34:34.157Z,9.10
2023-05-05T04:37:05.545Z,9.19
2023-05-05T04:39:34.233Z,9.31
2023-05-05T04:42:04.419Z,9.46
2023-05-05T04:44:32.810Z,9.61
2023-05-05T04:47:03.423Z,9.59
2023-05-05T04:49:32.196Z,9.62
2023-05-05T04:52:01.531Z,9.67
2023-05-05T04:54:32.865Z,9.71
2023-05-05T04:57:01.387Z,9.79
2023-05-05T04:59:32.333Z,9.84
2023-05-05T05:02:11.856Z,9.89
2023-05-05T05:04:40.408Z,9.91
2023-05-05T05:07:10.846Z,10.05
2023-05-05T05:09:41.046Z,10.19
2023-05-05T05:12:09.870Z,10.22
2023-05-05T05:14:41.222Z,10.32
2023-05-05T05:17:09.429Z,10.44
2023-05-05T05:19:37.563Z,10.63
2023-05-05T05:22:05.637Z,10.88
2023-05-05T05:24:34.870Z,10.85
2023-05-05T05:27:03.026Z,11.00
2023-05-05T05:29:31.074Z,11.05
2023-05-05T05:32:00.543Z,11.14
2023-05-05T05:34:29.541Z,11.43
2023-05-05T05:36:58.774Z,11.44
2023-05-05T05:39:30.695Z,11.55
2023-05-05T05:42:04.378Z,12.02
2023-05-05T05:44:33.122Z,12.31
2023-05-05T05:47:05.898Z,12.53
2023-05-05T05:49:40.612Z,12.69
2023-05-05T05:52:12.578Z,12.73
2023-05-05T05:54:42.028Z,13.07
2023-05-05T05:57:10.367Z,13.06
2023-05-05T05:59:39.075Z,13.24
2023-05-05T06:02:09.939Z,13.50
2023-05-05T06:04:41.755Z,13.57
2023-05-05T06:07:11.744Z,13.85
2023-05-05T06:09:42.621Z,13.93
2023-05-05T06:12:12.489Z,14.10
2023-05-05T06:14:40.469Z,14.27
2023-05-05T06:17:10.463Z,14.33
2023-05-05T06:19:42.615Z,14.41
2023-05-05T06:22:11.166Z,14.56
2023-05-05T06:24:43.495Z,14.60
2023-05-05T06:27:12.869Z,14.64
2023-05-05T06:29:42.944Z,14.67
2023-05-05T06:32:12.995Z,14.86
2023-05-05T06:34:45.030Z,14.86
2023-05-05T06:37:15.597Z,14.95
2023-05-05T06:39:43.852Z,15.06
2023-05-05T06:42:14.276Z,15.15
2023-05-05T06:44:44.094Z,15.15
2023-05-05T06:47:15.908Z,15.25
2023-05-05T06:49:44.376Z,15.30
2023-05-05T06:52:14.135Z,15.30
2023-05-05T06:54:42.660Z,15.30
2023-05-05T06:57:12.423Z,15.36
2023-05-05T06:59:43.648Z,15.34
2023-05-05T07:02:13.745Z,15.54
2023-05-05T07:04:44.205Z,15.34
2023-05-05T07:07:13.061Z,15.57
2023-05-05T07:09:45.039Z,15.71
2023-05-05T07:12:19.077Z,15.92
2023-05-05T07:14:49.244Z,16.02
2023-05-05T07:17:21.128Z,15.97
2023-05-05T07:19:51.265Z,16.19
2023-05-05T07:22:21.297Z,16.22
2023-05-05T07:24:54.616Z,16.48
2023-05-05T07:27:24.037Z,16.74
2023-05-05T07:29:52.828Z,16.29
2023-05-05T07:32:23.629Z,16.52
2023-05-05T07:34:52.402Z,16.50
2023-05-05T07:37:20.877Z,16.60
2023-05-05T07:39:49.424Z,16.56
2023-05-05T07:42:20.845Z,16.90
2023-05-05T07:44:51.386Z,17.08
2023-05-05T07:47:23.264Z,17.27
2023-05-05T07:49:55.738Z,17.46
2023-05-05T07:52:37.003Z,17.57
2023-05-05T07:55:14.266Z,17.48
2023-05-05T07:57:42.586Z,17.59
2023-05-05T08:00:13.724Z,17.75
2023-05-05T08:02:46.129Z,17.52
2023-05-05T08:05:16.086Z,17.59
2023-05-05T08:07:44.763Z,17.84
2023-05-05T08:10:16.423Z,17.96
2023-05-05T08:12:44.498Z,17.63
2023-05-05T08:15:13.746Z,17.89
2023-05-05T08:17:51.021Z,18.17
2023-05-05T08:20:22.219Z,18.20
2023-05-05T08:22:51.958Z,18.13
2023-05-05T08:25:23.701Z,18.05
2023-05-05T08:27:53.557Z,18.27
2023-05-05T08:30:22.723Z,18.17
2023-05-05T08:32:51.274Z,18.20
2023-05-05T08:35:23.277Z,18.32
2023-05-05T08:37:53.145Z,18.25
2023-05-05T08:40:23.640Z,18.04
2023-05-05T08:42:54.387Z,18.08
2023-05-05T08:45:25.014Z,17.89
2023-05-05T08:47:54.946Z,18.35
2023-05-05T08:50:29.622Z,19.03
2023-05-05T08:53:02.080Z,18.75
2023-05-05T08:55:35.829Z,18.62
2023-05-05T08:58:06.024Z,18.80
2023-05-05T09:00:37.334Z,19.17
2023-05-05T09:03:07.372Z,18.58
2023-05-05T09:05:37.208Z,19.20
2023-05-05T09:08:06.924Z,19.44
2023-05-05T09:10:35.709Z,19.79
2023-05-05T09:13:06.208Z,19.41
2023-05-05T09:15:34.950Z,19.50
2023-05-05T09:18:05.578Z,19.31
2023-05-05T09:20:34.710Z,20.37
2023-05-05T09:23:12.731Z,19.67
2023-05-05T09:25:42.141Z,19.67
2023-05-05T09:28:11.682Z,19.64
2023-05-05T09:30:41.021Z,19.59
2023-05-05T09:33:09.098Z,20.29
2023-05-05T09:35:53.233Z,20.04
2023-05-05T09:38:24.273Z,19.04
2023-05-05T09:40:54.021Z,19.50
2023-05-05T09:43:22.777Z,19.99
2023-05-05T09:45:52.149Z,19.41
2023-05-05T09:48:27.159Z,19.97
2023-05-05T09:50:55.811Z,20.30
2023-05-05T09:53:25.777Z,20.63
2023-05-05T09:55:55.495Z,21.47
2023-05-05T09:58:24.851Z,20.65
2023-05-05T10:00:53.244Z,20.20
2023-05-05T10:03:21.632Z,20.67
2023-05-05T10:05:51.888Z,20.98
2023-05-05T10:08:21.227Z,21.21
2023-05-05T10:10:54.970Z,21.50
2023-05-05T10:13:25.254Z,21.56
2023-05-05T10:15:54.721Z,21.35
2023-05-05T10:18:24.253Z,21.78
2023-05-05T10:20:58.202Z,21.67
2023-05-05T10:23:29.770Z,21.12
2023-05-05T10:26:02.083Z,21.13
2023-05-05T10:28:33.101Z,20.73
2023-05-05T10:31:16.141Z,20.63
2023-05-05T10:33:56.089Z,20.85
2023-05-05T10:36:26.575Z,20.41
2023-05-05T10:38:56.616Z,19.95
2023-05-05T10:41:27.201Z,19.79
2023-05-05T10:43:58.771Z,20.44
2023-05-05T10:46:28.118Z,21.33
2023-05-05T10:48:59.272Z,21.11
2023-05-05T10:51:40.087Z,20.68
2023-05-05T10:54:12.969Z,20.70
2023-05-05T10:56:44.383Z,21.64
2023-05-05T10:59:27.192Z,22.11
2023-05-05T11:01:55.212Z,20.44
2023-05-05T11:05:24.811Z,20.46
2023-05-05T11:07:55.034Z,21.81
2023-05-05T11:10:23.863Z,22.79
2023-05-05T11:13:23.110Z,22.94
2023-05-05T11:15:55.496Z,23.23
2023-05-05T11:18:45.079Z,23.07
2023-05-05T11:21:19.077Z,23.11
2023-05-05T11:23:52.723Z,23.28
2023-05-05T11:26:52.230Z,23.06
2023-05-05T11:29:21.002Z,22.35
2023-05-05T11:32:16.266Z,23.50
2023-05-05T11:34:51.666Z,21.61
2023-05-05T11:37:24.782Z,22.31
2023-05-05T11:40:08.961Z,23.41
2023-05-05T11:42:40.611Z,22.76
2023-05-05T11:45:25.142Z,22.87
2023-05-05T11:47:53.641Z,23.07
2023-05-05T11:50:27.311Z,22.38
2023-05-05T11:52:58.523Z,23.17
2023-05-05T11:55:34.423Z,23.54
2023-05-05T11:58:19.941Z,23.25
2023-05-05T12:00:51.576Z,24.05
2023-05-05T12:03:20.146Z,23.66
2023-05-05T12:05:49.016Z,24.23
2023-05-05T12:08:21.190Z,22.09
2023-05-05T12:10:53.122Z,22.09
2023-05-05T12:13:25.837Z,22.83
2023-05-05T12:15:57.204Z,23.38
2023-05-05T12:18:25.760Z,21.80
2023-05-05T12:20:56.660Z,22.24
2023-05-05T12:23:30.406Z,23.20
2023-05-05T12:25:58.936Z,23.72
2023-05-05T12:28:45.300Z,23.58
2023-05-05T12:31:13.917Z,23.88
2023-05-05T12:33:43.668Z,23.86
2023-05-05T12:36:12.229Z,23.75
2023-05-05T12:38:43.056Z,24.47
2023-05-05T12:41:18.947Z,22.65
2023-05-05T12:43:49.114Z,23.31
2023-05-05T12:46:18.911Z,23.50
2023-05-05T12:49:00.410Z,23.80
2023-05-05T12:51:41.482Z,23.76
2023-05-05T12:54:13.500Z,23.85
2023-05-05T12:56:44.346Z,22.75
2023-05-05T12:59:32.580Z,23.24
2023-05-05T13:02:05.960Z,22.63
2023-05-05T13:04:51.485Z,22.79
2023-05-05T13:07:23.258Z,22.72
2023-05-05T13:10:07.133Z,22.94
2023-05-05T13:12:38.890Z,22.39
2023-05-05T13:15:10.256Z,23.52
2023-05-05T13:17:41.631Z,23.38
2023-05-05T13:20:16.683Z,23.02
2023-05-05T13:22:47.074Z,22.94
2023-05-05T13:25:19.167Z,22.86
2023-05-05T13:27:48.996Z,23.32
2023-05-05T13:30:20.898Z,23.44
2023-05-05T13:32:58.839Z,23.42
2023-05-05T13:35:36.913Z,23.35
2023-05-05T13:38:08.832Z,23.76
2023-05-05T13:40:48.216Z,22.99
2023-05-05T13:43:21.608Z,22.57
2023-05-05T13:46:12.228Z,22.80
2023-05-05T13:48:49.400Z,22.86
2023-05-05T13:51:20.036Z,22.87
2023-05-05T13:53:53.977Z,22.96
2023-05-05T13:56:29.576Z,23.30
2023-05-05T13:58:58.942Z,23.15
2023-05-05T14:01:29.178Z,23.34
2023-05-05T14:03:59.456Z,23.00
2023-05-05T14:06:30.641Z,22.86
2023-05-05T14:09:01.693Z,22.90
2023-05-05T14:11:39.241Z,22.80
2023-05-05T14:14:09.538Z,22.70
2023-05-05T14:16:39.792Z,22.75
2023-05-05T14:19:08.444Z,22.89
2023-05-05T14:21:42.644Z,23.15
2023-05-05T14:24:12.216Z,22.72
2023-05-05T14:26:42.240Z,23.17
2023-05-05T14:29:13.295Z,23.24
2023-05-05T14:31:46.391Z,22.73
2023-05-05T14:34:17.473Z,23.13
2023-05-05T14:36:49.287Z,22.72
2023-05-05T14:39:17.954Z,23.13
2023-05-05T14:41:52.361Z,23.03
2023-05-05T14:44:24.129Z,22.65
2023-05-05T14:46:58.175Z,22.82
2023-05-05T14:49:27.915Z,22.44
2023-05-05T14:52:02.380Z,22.79
2023-05-05T14:54:33.550Z,23.00
2023-05-05T14:57:06.904Z,22.73
2023-05-05T14:59:38.292Z,22.63
2023-05-05T15:02:09.372Z,22.59
2023-05-05T15:04:40.153Z,22.53
2023-05-05T15:07:11.441Z,22.63
2023-05-05T15:09:40.833Z,22.80
2023-05-05T15:12:11.958Z,22.87
2023-05-05T15:14:41.441Z,23.15
2023-05-05T15:17:10.335Z,22.89
2023-05-05T15:19:40.206Z,23.00
2023-05-05T15:22:08.366Z,22.92
2023-05-05T15:24:41.868Z,23.04
2023-05-05T15:27:12.659Z,22.86
2023-05-05T15:29:42.454Z,22.62
2023-05-05T15:32:14.878Z,22.22
2023-05-05T15:34:49.605Z,22.07
2023-05-05T15:37:20.588Z,22.08
2023-05-05T15:39:55.651Z,22.09
2023-05-05T15:42:28.364Z,22.09
2023-05-05T15:44:56.661Z,22.27
2023-05-05T15:47:26.832Z,22.05
2023-05-05T15:49:58.282Z,22.18
2023-05-05T15:52:28.898Z,22.32
2023-05-05T15:55:01.900Z,22.55
2023-05-05T15:57:39.298Z,22.96
2023-05-05T16:00:10.854Z,22.35
2023-05-05T16:02:42.269Z,22.17
2023-05-05T16:05:11.428Z,22.09
2023-05-05T16:07:41.121Z,21.96
2023-05-05T16:10:12.538Z,22.02
2023-05-05T16:12:43.601Z,21.96
2023-05-05T16:15:14.232Z,21.98
2023-05-05T16:17:46.541Z,21.97
2023-05-05T16:20:16.134Z,21.81
2023-05-05T16:22:46.272Z,21.69
2023-05-05T16:25:18.423Z,21.74
2023-05-05T16:27:49.830Z,21.64
2023-05-05T16:30:20.664Z,21.49
2023-05-05T16:32:52.311Z,21.43
2023-05-05T16:35:27.940Z,21.42
2023-05-05T16:37:58.292Z,21.40
2023-05-05T16:40:30.028Z,21.28
2023-05-05T16:43:03.034Z,21.29
2023-05-05T16:45:42.397Z,21.22
2023-05-05T16:48:15.181Z,21.09
2023-05-05T16:50:47.997Z,20.94
2023-05-05T16:53:22.262Z,20.96
2023-05-05T16:55:52.474Z,20.85
2023-05-05T16:58:26.887Z,20.84
2023-05-05T17:00:57.561Z,20.78
2023-05-05T17:03:27.118Z,20.73
2023-05-05T17:05:59.539Z,20.64
2023-05-05T17:08:30.116Z,20.55
2023-05-05T17:11:06.728Z,20.47
2023-05-05T17:13:40.156Z,20.34
2023-05-05T17:16:11.526Z,20.33
2023-05-05T17:18:39.903Z,20.32
2023-05-05T17:21:12.053Z,20.19
2023-05-05T17:23:40.518Z,20.16
2023-05-05T17:26:09.114Z,19.95
2023-05-05T17:28:42.140Z,19.81
2023-05-05T17:31:11.488Z,19.64
2023-05-05T17:33:41.592Z,19.57
2023-05-05T17:36:11.642Z,19.35
2023-05-05T17:38:44.688Z,19.27
2023-05-05T17:41:15.206Z,19.26
2023-05-05T17:43:46.181Z,19.21
2023-05-05T17:46:16.275Z,19.21
2023-05-05T17:48:49.219Z,18.99
2023-05-05T17:51:19.268Z,18.83
2023-05-05T17:53:48.437Z,18.75
2023-05-05T17:56:20.999Z,18.66
2023-05-05T17:58:53.060Z,18.59
2023-05-05T18:01:27.913Z,18.31
2023-05-05T18:04:01.836Z,18.14
2023-05-05T18:06:32.545Z,17.98
2023-05-05T18:09:07.301Z,17.83
2023-05-05T18:11:40.611Z,17.66
2023-05-05T18:14:15.395Z,17.53
2023-05-05T18:16:49.865Z,17.40
2023-05-05T18:19:22.139Z,17.25
2023-05-05T18:21:57.224Z,17.10
2023-05-05T18:24:31.285Z,16.97
2023-05-05T18:27:01.104Z,16.80
2023-05-05T18:29:35.166Z,16.74
2023-05-05T18:32:09.749Z,16.63
2023-05-05T18:34:38.612Z,16.48
2023-05-05T18:37:08.574Z,16.30
2023-05-05T18:39:43.805Z,16.13
2023-05-05T18:42:13.936Z,16.01
2023-05-05T18:44:46.255Z,15.87
2023-05-05T18:47:16.629Z,15.68
2023-05-05T18:49:45.468Z,15.53
2023-05-05T18:52:17.942Z,15.44
2023-05-05T18:54:50.934Z,15.33
2023-05-05T18:57:20.931Z,15.19
2023-05-05T18:59:53.947Z,15.07
2023-05-05T19:02:25.213Z,15.03
2023-05-05T19:04:56.715Z,15.07
2023-05-05T19:07:35.434Z,15.07
2023-05-05T19:10:11.554Z,15.16
2023-05-05T19:12:43.364Z,15.19
2023-05-05T19:15:15.972Z,15.07
2023-05-05T19:17:44.281Z,14.99
2023-05-05T19:20:15.787Z,15.00
2023-05-05T19:22:46.062Z,14.82
2023-05-05T19:25:16.681Z,14.72
2023-05-05T19:27:45.681Z,14.67
2023-05-05T19:30:16.673Z,14.60
2023-05-05T19:32:49.547Z,14.56
2023-05-05T19:35:23.441Z,14.44
2023-05-05T19:38:02.174Z,14.38
2023-05-05T19:40:33.177Z,14.28
2023-05-05T19:43:04.588Z,14.27
2023-05-05T19:45:38.455Z,14.17
2023-05-05T19:48:09.347Z,14.13
2023-05-05T19:50:39.864Z,13.99
2023-05-05T19:53:08.039Z,13.95
2023-05-05T19:55:36.245Z,13.95
2023-05-05T19:58:10.216Z,13.99
2023-05-05T20:00:43.110Z,14.00
2023-05-05T20:03:13.198Z,13.99
2023-05-05T20:05:43.461Z,13.92
2023-05-05T20:08:14.807Z,13.96
2023-05-05T20:10:45.910Z,13.95
2023-05-05T20:13:14.195Z,13.92
2023-05-05T20:15:44.432Z,13.73
2023-05-05T20:18:16.413Z,13.58
2023-05-05T20:20:46.604Z,13.37
2023-05-05T20:23:17.039Z,13.30
2023-05-05T20:25:48.050Z,12.96
2023-05-05T20:28:20.400Z,12.76
2023-05-05T20:30:53.055Z,12.73
2023-05-05T20:33:21.654Z,12.69
2023-05-05T20:35:49.983Z,12.65
2023-05-05T20:38:20.842Z,12.62
2023-05-05T20:40:49.260Z,12.62
2023-05-05T20:43:19.234Z,12.53
2023-05-05T20:45:57.132Z,12.50
2023-05-05T20:48:30.631Z,12.49
2023-05-05T20:50:59.613Z,12.41
2023-05-05T20:53:29.906Z,12.41
2023-05-05T20:55:58.715Z,12.42
2023-05-05T20:58:27.569Z,12.48
2023-05-05T21:00:59.403Z,12.48
2023-05-05T21:03:29.180Z,12.46
2023-05-05T21:06:03.455Z,12.36
2023-05-05T21:08:39.503Z,12.22
2023-05-05T21:11:11.907Z,12.15
2023-05-05T21:13:45.878Z,12.01
2023-05-05T21:16:20.752Z,11.97
2023-05-05T21:18:49.072Z,11.90
2023-05-05T21:21:19.342Z,11.86
2023-05-05T21:23:50.782Z,11.91
2023-05-05T21:26:21.290Z,11.87
2023-05-05T21:28:53.726Z,11.77
2023-05-05T21:31:23.848Z,11.69
2023-05-05T21:33:54.383Z,11.66
2023-05-05T21:36:23.161Z,11.66
2023-05-05T21:38:55.680Z,11.67
2023-05-05T21:41:27.090Z,11.70
2023-05-05T21:44:00.852Z,11.70
2023-05-05T21:46:32.721Z,11.69
2023-05-05T21:49:12.204Z,11.65
2023-05-05T21:51:48.952Z,11.56
2023-05-05T21:54:20.484Z,11.59
2023-05-05T21:56:51.669Z,11.62
2023-05-05T21:59:21.466Z,11.56
2023-05-05T22:01:51.873Z,11.65
2023-05-05T22:04:22.480Z,11.69
2023-05-05T22:06:56.626Z,11.73
2023-05-05T22:09:26.692Z,11.73
2023-05-05T22:11:58.181Z,11.73
2023-05-05T22:14:28.095Z,11.69
2023-05-05T22:16:59.846Z,11.71
2023-05-05T22:19:34.456Z,11.76
2023-05-05T22:22:05.998Z,11.74
2023-05-05T22:24:39.991Z,11.66
2023-05-05T22:27:11.332Z,11.69
2023-05-05T22:29:42.636Z,11.67
2023-05-05T22:32:15.988Z,11.59
2023-05-05T22:34:45.839Z,11.60
2023-05-05T22:37:19.861Z,11.60
2023-05-05T22:39:50.407Z,11.52
2023-05-05T22:42:22.011Z,11.42
2023-05-05T22:44:50.194Z,11.30
2023-05-05T22:47:20.538Z,11.25
2023-05-05T22:49:49.624Z,11.00
2023-05-05T22:52:17.967Z,10.98
2023-05-05T22:54:49.750Z,10.95
2023-05-05T22:57:19.987Z,10.81
2023-05-05T22:59:52.867Z,10.78
2023-05-05T23:02:26.818Z,10.70
2023-05-05T23:05:02.289Z,10.65
2023-05-05T23:07:33.215Z,10.64
2023-05-05T23:10:03.311Z,10.61
2023-05-05T23:12:33.666Z,10.30
2023-05-05T23:15:08.236Z,9.82
2023-05-05T23:17:45.469Z,9.85
2023-05-05T23:20:15.266Z,9.96
2023-05-05T23:22:45.149Z,10.01
2023-05-05T23:25:16.171Z,10.02
2023-05-05T23:27:47.761Z,10.10
2023-05-05T23:30:18.460Z,10.05
2023-05-05T23:32:54.394Z,10.02
2023-05-05T23:35:24.818Z,10.08
2023-05-05T23:37:57.770Z,10.03
2023-05-05T23:40:29.431Z,9.96
2023-05-05T23:42:58.992Z,10.02
2023-05-05T23:45:27.888Z,9.94
2023-05-05T23:47:58.186Z,9.88
2023-05-05T23:50:27.807Z,9.84
2023-05-05T23:53:01.487Z,9.95
2023-05-05T23:55:31.335Z,9.85
2023-05-05T23:58:07.805Z,9.85
